sensor_id;sensor_type;location;lat;lon;timestamp;pressure;altitude;pressure_sealevel;temperature;humidity
13553;BME280;6847;48.830;9.116;2023-12-28T00:02:20;97748.38;;;8.01;53.68
13553;BME280;6847;48.830;9.116;2023-12-28T00:04:52;97841.66;;;8.59;53.69
13553;BME280;6847;48.830;9.116;2023-12-28T00:07:27;97778.38;;;8.20;53.81
13553;BME280;6847;48.830;9.116;2023-12-28T00:09:59;97924.91;;;9.03;53.54
13553;BME280;6847;48.830;9.116;2023-12-28T00:12:58;97907.91;;;8.97;54.17
13553;BME280;6847;48.830;9.116;2023-12-28T00:15:38;98009.59;;;9.54;53.61
13553;BME280;6847;48.830;9.116;2023-12-28T00:18:21;97759.69;;;7.98;53.64
13553;BME280;6847;48.830;9.116;2023-12-28T00:20:58;97911.69;;;8.91;53.72
13553;BME280;6847;48.830;9.116;2023-12-28T00:23:40;97736.19;;;7.88;53.48
13553;BME280;6847;48.830;9.116;2023-12-28T00:26:21;97964.16;;;9.41;53.32
13553;BME280;6847;48.830;9.116;2023-12-28T00:28:49;97860.63;;;8.84;53.57
13553;BME280;6847;48.830;9.116;2023-12-28T00:31:18;97826.88;;;8.77;53.09
13553;BME280;6847;48.830;9.116;2023-12-28T00:33:46;97816.88;;;8.77;53.17
13553;BME280;6847;48.830;9.116;2023-12-28T00:36:16;97887.41;;;9.21;53.33
13553;BME280;6847;48.830;9.116;2023-12-28T00:38:56;97726.88;;;8.21;53.47
13553;BME280;6847;48.830;9.116;2023-12-28T00:41:27;97956.91;;;9.72;53.29
13553;BME280;6847;48.830;9.116;2023-12-28T00:43:59;97904.19;;;9.39;53.65
13553;BME280;6847;48.830;9.116;2023-12-28T00:46:31;97858.50;;;9.07;53.50
13553;BME280;6847;48.830;9.116;2023-12-28T00:48:58;97731.22;;;8.27;53.36
13553;BME280;6847;48.830;9.116;2023-12-28T00:51:36;97993.41;;;9.94;53.32
13553;BME280;6847;48.830;9.116;2023-12-28T00:54:10;97742.56;;;8.34;53.62
13553;BME280;6847;48.830;9.116;2023-12-28T00:56:37;97727.41;;;8.18;52.85
13553;BME280;6847;48.830;9.116;2023-12-28T00:59:08;97680.94;;;7.80;52.32
13553;BME280;6847;48.830;9.116;2023-12-28T01:01:44;97831.97;;;8.73;53.16
13553;BME280;6847;48.830;9.116;2023-12-28T01:04:17;97952.56;;;9.35;52.95
13553;BME280;6847;48.830;9.116;2023-12-28T01:06:51;97929.00;;;9.15;52.96
13553;BME280;6847;48.830;9.116;2023-12-28T01:09:41;97897.09;;;9.02;53.24
13553;BME280;6847;48.830;9.116;2023-12-28T01:12:11;97920.91;;;9.15;52.53
13553;BME280;6847;48.830;9.116;2023-12-28T01:14:38;97760.28;;;8.10;52.83
13553;BME280;6847;48.830;9.116;2023-12-28T01:17:06;97837.06;;;8.54;52.89
13553;BME280;6847;48.830;9.116;2023-12-28T01:19:34;97917.06;;;9.01;53.46
13553;BME280;6847;48.830;9.116;2023-12-28T01:22:15;97744.03;;;7.95;52.62
13553;BME280;6847;48.830;9.116;2023-12-28T01:24:49;97775.41;;;8.16;52.40
13553;BME280;6847;48.830;9.116;2023-12-28T01:27:16;97764.00;;;8.04;52.71
13553;BME280;6847;48.830;9.116;2023-12-28T01:29:45;98035.31;;;9.67;52.83
13553;BME280;6847;48.830;9.116;2023-12-28T01:32:13;97917.59;;;8.93;52.62
13553;BME280;6847;48.830;9.116;2023-12-28T01:34:49;97812.59;;;8.14;52.24
13553;BME280;6847;48.830;9.116;2023-12-28T01:37:17;97906.19;;;8.66;52.86
13553;BME280;6847;48.830;9.116;2023-12-28T01:39:44;97919.66;;;8.61;52.51
13553;BME280;6847;48.830;9.116;2023-12-28T01:42:19;98040.91;;;9.30;52.59
13553;BME280;6847;48.830;9.116;2023-12-28T01:44:48;97861.69;;;8.16;52.84
13553;BME280;6847;48.830;9.116;2023-12-28T01:47:15;97968.59;;;8.84;52.91
13553;BME280;6847;48.830;9.116;2023-12-28T01:49:44;98035.50;;;9.30;52.89
13553;BME280;6847;48.830;9.116;2023-12-28T01:52:14;97932.66;;;8.69;52.67
13553;BME280;6847;48.830;9.116;2023-12-28T01:54:43;98059.59;;;9.51;52.47
13553;BME280;6847;48.830;9.116;2023-12-28T01:57:14;97976.78;;;9.00;52.16
13553;BME280;6847;48.830;9.116;2023-12-28T01:59:47;98056.06;;;9.46;52.59
13553;BME280;6847;48.830;9.116;2023-12-28T02:02:16;97801.44;;;7.90;52.81
13553;BME280;6847;48.830;9.116;2023-12-28T02:04:45;97793.06;;;7.82;52.06
13553;BME280;6847;48.830;9.116;2023-12-28T02:07:26;97921.81;;;8.59;52.57
13553;BME280;6847;48.830;9.116;2023-12-28T02:10:13;97983.00;;;9.05;52.40
13553;BME280;6847;48.830;9.116;2023-12-28T02:12:42;97943.47;;;8.79;52.18
13553;BME280;6847;48.830;9.116;2023-12-28T02:15:18;97772.75;;;7.69;52.41
13553;BME280;6847;48.830;9.116;2023-12-28T02:17:49;97963.25;;;8.95;52.57
13553;BME280;6847;48.830;9.116;2023-12-28T02:20:21;97885.59;;;8.44;52.49
13553;BME280;6847;48.830;9.116;2023-12-28T02:22:49;97803.94;;;8.02;52.67
13553;BME280;6847;48.830;9.116;2023-12-28T02:25:32;98085.84;;;9.71;52.62
13553;BME280;6847;48.830;9.116;2023-12-28T02:27:58;98073.97;;;9.67;52.08
13553;BME280;6847;48.830;9.116;2023-12-28T02:30:28;98018.69;;;9.22;51.83
13553;BME280;6847;48.830;9.116;2023-12-28T02:33:02;97799.25;;;7.82;52.58
13553;BME280;6847;48.830;9.116;2023-12-28T02:35:42;97847.03;;;7.97;52.18
13553;BME280;6847;48.830;9.116;2023-12-28T02:38:16;97946.66;;;8.61;52.47
13553;BME280;6847;48.830;9.116;2023-12-28T02:40:47;97803.41;;;7.58;52.80
13553;BME280;6847;48.830;9.116;2023-12-28T02:43:17;97960.09;;;8.56;52.31
13553;BME280;6847;48.830;9.116;2023-12-28T02:45:54;97896.69;;;8.06;52.20
13553;BME280;6847;48.830;9.116;2023-12-28T02:48:22;97910.75;;;8.13;51.91
13553;BME280;6847;48.830;9.116;2023-12-28T02:50:54;97853.84;;;7.67;52.45
13553;BME280;6847;48.830;9.116;2023-12-28T02:53:23;97972.97;;;8.43;52.50
13553;BME280;6847;48.830;9.116;2023-12-28T02:58:34;98070.47;;;9.04;52.36
13553;BME280;6847;48.830;9.116;2023-12-28T03:01:01;98073.75;;;9.06;52.34
13553;BME280;6847;48.830;9.116;2023-12-28T03:03:28;98071.88;;;9.12;52.42
13553;BME280;6847;48.830;9.116;2023-12-28T03:05:56;98075.41;;;9.17;52.09
13553;BME280;6847;48.830;9.116;2023-12-28T03:08:24;97899.47;;;8.21;51.96
13553;BME280;6847;48.830;9.116;2023-12-28T03:10:52;98073.03;;;9.31;52.10
13553;BME280;6847;48.830;9.116;2023-12-28T03:13:20;98066.84;;;9.36;52.23
13553;BME280;6847;48.830;9.116;2023-12-28T03:15:48;98080.34;;;9.41;52.09
13553;BME280;6847;48.830;9.116;2023-12-28T03:18:15;98066.31;;;9.44;51.83
13553;BME280;6847;48.830;9.116;2023-12-28T03:20:41;98066.63;;;9.52;52.25
13553;BME280;6847;48.830;9.116;2023-12-28T03:23:08;98063.38;;;9.55;51.94
13553;BME280;6847;48.830;9.116;2023-12-28T03:25:35;98069.06;;;9.54;51.94
13553;BME280;6847;48.830;9.116;2023-12-28T03:28:01;98065.28;;;9.55;51.91
13553;BME280;6847;48.830;9.116;2023-12-28T03:30:28;98069.09;;;9.59;51.93
13553;BME280;6847;48.830;9.116;2023-12-28T03:32:56;97927.00;;;8.75;51.71
13553;BME280;6847;48.830;9.116;2023-12-28T03:35:23;98072.38;;;9.86;51.86
13553;BME280;6847;48.830;9.116;2023-12-28T03:37:49;98062.13;;;10.03;51.26
13553;BME280;6847;48.830;9.116;2023-12-28T03:40:16;98056.19;;;10.17;51.81
13553;BME280;6847;48.830;9.116;2023-12-28T03:42:42;98058.38;;;10.25;52.05
13553;BME280;6847;48.830;9.116;2023-12-28T03:45:09;98044.03;;;10.29;51.55
13553;BME280;6847;48.830;9.116;2023-12-28T03:47:37;98055.66;;;10.50;51.34
13553;BME280;6847;48.830;9.116;2023-12-28T03:50:12;98011.00;;;10.43;50.98
13553;BME280;6847;48.830;9.116;2023-12-28T03:52:40;98030.72;;;10.63;51.29
13553;BME280;6847;48.830;9.116;2023-12-28T03:55:07;97960.16;;;10.19;51.52
13553;BME280;6847;48.830;9.116;2023-12-28T03:57:33;98040.16;;;10.81;51.17
13553;BME280;6847;48.830;9.116;2023-12-28T04:00:00;97957.16;;;10.36;51.06
13553;BME280;6847;48.830;9.116;2023-12-28T04:02:27;98039.84;;;11.03;51.46
13553;BME280;6847;48.830;9.116;2023-12-28T04:04:56;98045.22;;;11.13;51.43
13553;BME280;6847;48.830;9.116;2023-12-28T04:07:25;97953.03;;;10.59;51.14
13553;BME280;6847;48.830;9.116;2023-12-28T04:09:52;98045.13;;;11.28;50.79
13553;BME280;6847;48.830;9.116;2023-12-28T04:12:22;97939.72;;;10.72;51.42
13553;BME280;6847;48.830;9.116;2023-12-28T04:14:48;97871.41;;;10.26;50.49
13553;BME280;6847;48.830;9.116;2023-12-28T04:17:16;98047.22;;;11.46;51.51
13553;BME280;6847;48.830;9.116;2023-12-28T04:19:42;97997.47;;;11.22;50.56
13553;BME280;6847;48.830;9.116;2023-12-28T04:22:09;98048.44;;;11.74;50.73
13553;BME280;6847;48.830;9.116;2023-12-28T04:24:38;98047.81;;;11.88;50.49
13553;BME280;6847;48.830;9.116;2023-12-28T04:27:04;97945.94;;;11.32;50.30
13553;BME280;6847;48.830;9.116;2023-12-28T04:29:31;98022.56;;;11.92;50.83
13553;BME280;6847;48.830;9.116;2023-12-28T04:31:58;98038.19;;;12.05;50.41
13553;BME280;6847;48.830;9.116;2023-12-28T04:34:24;98039.81;;;12.11;50.66
13553;BME280;6847;48.830;9.116;2023-12-28T04:36:51;98043.00;;;12.18;50.73
13553;BME280;6847;48.830;9.116;2023-12-28T04:39:17;98034.00;;;12.23;50.04
13553;BME280;6847;48.830;9.116;2023-12-28T04:41:46;97871.19;;;11.21;50.58
13553;BME280;6847;48.830;9.116;2023-12-28T04:44:13;98035.28;;;12.31;50.28
13553;BME280;6847;48.830;9.116;2023-12-28T04:46:39;97934.28;;;11.71;50.36
13553;BME280;6847;48.830;9.116;2023-12-28T04:49:08;98035.28;;;12.31;50.41
13553;BME280;6847;48.830;9.116;2023-12-28T04:51:34;97871.59;;;11.38;49.87
13553;BME280;6847;48.830;9.116;2023-12-28T04:54:01;97994.69;;;12.15;50.70
13553;BME280;6847;48.830;9.116;2023-12-28T04:56:28;98013.91;;;12.24;50.31
13553;BME280;6847;48.830;9.116;2023-12-28T04:58:56;98021.81;;;12.20;50.75
13553;BME280;6847;48.830;9.116;2023-12-28T05:01:23;98025.09;;;12.17;50.52
13553;BME280;6847;48.830;9.116;2023-12-28T05:03:50;98024.03;;;12.13;50.62
13553;BME280;6847;48.830;9.116;2023-12-28T05:06:16;97779.22;;;10.62;49.91
13553;BME280;6847;48.830;9.116;2023-12-28T05:08:43;97983.53;;;11.88;49.95
13553;BME280;6847;48.830;9.116;2023-12-28T05:11:10;98022.97;;;12.09;50.34
13553;BME280;6847;48.830;9.116;2023-12-28T05:13:36;97989.50;;;11.85;50.06
13553;BME280;6847;48.830;9.116;2023-12-28T05:16:06;98022.97;;;12.09;49.76
13553;BME280;6847;48.830;9.116;2023-12-28T05:18:33;98031.41;;;12.08;49.80
13553;BME280;6847;48.830;9.116;2023-12-28T05:21:00;98032.28;;;12.03;50.12
13553;BME280;6847;48.830;9.116;2023-12-28T05:23:29;98029.28;;;12.00;50.19
13553;BME280;6847;48.830;9.116;2023-12-28T05:25:56;98037.50;;;11.95;50.52
13553;BME280;6847;48.830;9.116;2023-12-28T05:28:22;98039.69;;;11.88;49.95
13553;BME280;6847;48.830;9.116;2023-12-28T05:30:49;98054.63;;;11.85;50.46
13553;BME280;6847;48.830;9.116;2023-12-28T05:33:17;98050.31;;;11.84;50.47
13553;BME280;6847;48.830;9.116;2023-12-28T05:35:44;98061.97;;;11.84;49.96
13553;BME280;6847;48.830;9.116;2023-12-28T05:38:10;98073.31;;;11.86;50.30
13553;BME280;6847;48.830;9.116;2023-12-28T05:40:38;98061.94;;;11.90;50.25
13553;BME280;6847;48.830;9.116;2023-12-28T05:43:05;98068.97;;;11.91;50.48
13553;BME280;6847;48.830;9.116;2023-12-28T05:45:32;98057.63;;;11.83;49.64
13553;BME280;6847;48.830;9.116;2023-12-28T05:47:59;98089.81;;;12.00;50.09
13553;BME280;6847;48.830;9.116;2023-12-28T05:50:27;98087.31;;;12.09;49.89
13553;BME280;6847;48.830;9.116;2023-12-28T05:52:54;98079.63;;;12.21;49.93
13553;BME280;6847;48.830;9.116;2023-12-28T05:55:21;97912.09;;;11.25;50.27
13553;BME280;6847;48.830;9.116;2023-12-28T05:57:48;98074.59;;;12.38;49.65
13553;BME280;6847;48.830;9.116;2023-12-28T06:00:15;98040.72;;;12.31;49.73
13553;BME280;6847;48.830;9.116;2023-12-28T06:02:42;98077.41;;;12.57;50.12
13553;BME280;6847;48.830;9.116;2023-12-28T06:05:09;98072.69;;;12.68;50.02
13553;BME280;6847;48.830;9.116;2023-12-28T06:07:37;97889.91;;;11.57;50.05
13553;BME280;6847;48.830;9.116;2023-12-28T06:10:06;98087.16;;;12.92;49.82
13553;BME280;6847;48.830;9.116;2023-12-28T06:12:32;98079.28;;;12.90;49.41
13553;BME280;6847;48.830;9.116;2023-12-28T06:14:59;98098.66;;;13.08;49.79
13553;BME280;6847;48.830;9.116;2023-12-28T06:17:26;98109.22;;;13.14;49.49
13553;BME280;6847;48.830;9.116;2023-12-28T06:19:53;98108.34;;;13.19;49.41
13553;BME280;6847;48.830;9.116;2023-12-28T06:22:19;98106.66;;;13.23;49.56
13553;BME280;6847;48.830;9.116;2023-12-28T06:24:47;98069.03;;;13.06;49.51
13553;BME280;6847;48.830;9.116;2023-12-28T06:27:14;98099.50;;;13.32;49.61
13553;BME280;6847;48.830;9.116;2023-12-28T06:29:41;98112.81;;;13.33;50.00
13553;BME280;6847;48.830;9.116;2023-12-28T06:32:07;98099.16;;;13.39;49.70
13553;BME280;6847;48.830;9.116;2023-12-28T06:34:35;98089.53;;;13.46;49.77
13553;BME280;6847;48.830;9.116;2023-12-28T06:37:02;97892.63;;;12.19;49.66
13553;BME280;6847;48.830;9.116;2023-12-28T06:39:29;98100.59;;;13.55;49.58
13553;BME280;6847;48.830;9.116;2023-12-28T06:41:57;98039.34;;;13.15;50.11
13553;BME280;6847;48.830;9.116;2023-12-28T06:44:23;98112.81;;;13.57;49.74
13553;BME280;6847;48.830;9.116;2023-12-28T06:46:50;98118.78;;;13.59;49.86
13553;BME280;6847;48.830;9.116;2023-12-28T06:49:18;98126.31;;;13.62;49.63
13553;BME280;6847;48.830;9.116;2023-12-28T06:51:45;98040.47;;;13.09;49.88
13553;BME280;6847;48.830;9.116;2023-12-28T06:54:13;97896.06;;;12.25;50.08
13553;BME280;6847;48.830;9.116;2023-12-28T06:56:40;98099.72;;;13.59;49.98
13553;BME280;6847;48.830;9.116;2023-12-28T06:59:08;98114.28;;;13.68;49.90
13553;BME280;6847;48.830;9.116;2023-12-28T07:01:37;98100.81;;;13.58;49.75
13553;BME280;6847;48.830;9.116;2023-12-28T07:04:04;97950.06;;;12.55;50.04
13553;BME280;6847;48.830;9.116;2023-12-28T07:06:30;98124.94;;;13.65;49.92
13553;BME280;6847;48.830;9.116;2023-12-28T07:08:57;98137.81;;;13.59;50.06
13553;BME280;6847;48.830;9.116;2023-12-28T07:11:25;98090.84;;;13.30;50.17
13553;BME280;6847;48.830;9.116;2023-12-28T07:13:53;98041.69;;;12.97;50.05
13553;BME280;6847;48.830;9.116;2023-12-28T07:16:39;98134.56;;;13.57;50.40
13553;BME280;6847;48.830;9.116;2023-12-28T08:52:34;98182.28;;;12.87;52.27
13553;BME280;6847;48.830;9.116;2023-12-28T08:55:01;98179.81;;;12.90;51.91
13553;BME280;6847;48.830;9.116;2023-12-28T08:57:28;98184.66;;;12.93;52.10
13553;BME280;6847;48.830;9.116;2023-12-28T08:59:55;98179.22;;;12.98;51.92
13553;BME280;6847;48.830;9.116;2023-12-28T09:02:22;98162.34;;;13.02;52.14
13553;BME280;6847;48.830;9.116;2023-12-28T09:04:48;97993.25;;;11.94;51.83
13553;BME280;6847;48.830;9.116;2023-12-28T09:07:15;98170.97;;;13.09;51.84
13553;BME280;6847;48.830;9.116;2023-12-28T09:09:46;98161.00;;;12.99;52.15
13553;BME280;6847;48.830;9.116;2023-12-28T09:12:13;98168.28;;;13.04;51.87
13553;BME280;6847;48.830;9.116;2023-12-28T09:14:39;98084.56;;;12.48;52.10
13553;BME280;6847;48.830;9.116;2023-12-28T09:17:06;98172.13;;;12.97;52.12
13553;BME280;6847;48.830;9.116;2023-12-28T09:19:33;98169.44;;;12.97;52.06
13553;BME280;6847;48.830;9.116;2023-12-28T09:22:03;98115.44;;;12.57;52.65
13553;BME280;6847;48.830;9.116;2023-12-28T09:28:19;98172.09;;;13.03;52.23
13553;BME280;6847;48.830;9.116;2023-12-28T09:31:05;98113.44;;;12.68;52.84
13553;BME280;6847;48.830;9.116;2023-12-28T09:37:53;98185.84;;;13.45;52.62
13553;BME280;6847;48.830;9.116;2023-12-28T09:40:29;98193.84;;;13.60;52.19
13553;BME280;6847;48.830;9.116;2023-12-28T09:43:03;98172.13;;;13.55;52.38
13553;BME280;6847;48.830;9.116;2023-12-28T09:45:34;98144.47;;;13.48;52.30
13553;BME280;6847;48.830;9.116;2023-12-28T09:48:06;98198.63;;;13.92;52.62
13553;BME280;6847;48.830;9.116;2023-12-28T09:50:33;98201.56;;;13.96;52.44
13553;BME280;6847;48.830;9.116;2023-12-28T09:53:00;98145.38;;;13.62;52.66
13553;BME280;6847;48.830;9.116;2023-12-28T09:55:28;98044.06;;;13.04;52.75
13553;BME280;6847;48.830;9.116;2023-12-28T09:57:58;98209.63;;;14.06;52.91
13553;BME280;6847;48.830;9.116;2023-12-28T10:00:27;98203.28;;;14.11;52.94
13553;BME280;6847;48.830;9.116;2023-12-28T10:02:55;98204.56;;;14.18;53.03
13553;BME280;6847;48.830;9.116;2023-12-28T10:05:22;98211.25;;;14.26;52.92
13553;BME280;6847;48.830;9.116;2023-12-28T10:07:48;98158.59;;;13.93;53.41
13553;BME280;6847;48.830;9.116;2023-12-28T10:10:15;98223.41;;;14.33;53.05
13553;BME280;6847;48.830;9.116;2023-12-28T10:12:43;98214.09;;;14.39;53.07
13553;BME280;6847;48.830;9.116;2023-12-28T10:15:10;98215.69;;;14.40;52.98
13553;BME280;6847;48.830;9.116;2023-12-28T10:17:37;98189.72;;;14.29;52.93
13553;BME280;6847;48.830;9.116;2023-12-28T10:20:27;98208.47;;;14.50;53.01
13553;BME280;6847;48.830;9.116;2023-12-28T10:22:54;98206.22;;;14.57;53.09
13553;BME280;6847;48.830;9.116;2023-12-28T10:25:22;98208.66;;;14.58;52.95
13553;BME280;6847;48.830;9.116;2023-12-28T10:27:52;98200.16;;;14.60;52.97
13553;BME280;6847;48.830;9.116;2023-12-28T10:30:20;98197.97;;;14.62;52.99
13553;BME280;6847;48.830;9.116;2023-12-28T10:32:49;98189.25;;;14.60;52.99
13553;BME280;6847;48.830;9.116;2023-12-28T10:35:16;98196.94;;;14.58;53.09
13553;BME280;6847;48.830;9.116;2023-12-28T10:37:43;98189.78;;;14.62;53.20
13553;BME280;6847;48.830;9.116;2023-12-28T10:49:55;98193.47;;;14.71;53.18
13553;BME280;6847;48.830;9.116;2023-12-28T10:52:27;98145.75;;;14.55;53.04
13553;BME280;6847;48.830;9.116;2023-12-28T10:55:05;98195.44;;;14.84;52.85
13553;BME280;6847;48.830;9.116;2023-12-28T10:57:50;98185.75;;;14.92;52.78
13553;BME280;6847;48.830;9.116;2023-12-28T11:00:44;98172.88;;;14.97;53.09
13553;BME280;6847;48.830;9.116;2023-12-28T11:03:18;98171.44;;;15.00;53.05
13553;BME280;6847;48.830;9.116;2023-12-28T11:05:56;98164.19;;;15.09;52.99
13553;BME280;6847;48.830;9.116;2023-12-28T11:08:28;98047.19;;;14.34;53.10
13553;BME280;6847;48.830;9.116;2023-12-28T11:11:01;98165.44;;;15.16;53.02
13553;BME280;6847;48.830;9.116;2023-12-28T16:51:33;98044.09;;;13.28;56.75
13553;BME280;6847;48.830;9.116;2023-12-28T16:54:01;98021.66;;;13.12;56.74
13553;BME280;6847;48.830;9.116;2023-12-28T16:56:28;98026.59;;;13.10;57.14
13553;BME280;6847;48.830;9.116;2023-12-28T16:58:58;97864.22;;;12.12;57.08
13553;BME280;6847;48.830;9.116;2023-12-28T17:01:25;98048.34;;;13.34;56.93
13553;BME280;6847;48.830;9.116;2023-12-28T17:04:29;98078.09;;;13.49;56.77
13553;BME280;6847;48.830;9.116;2023-12-28T17:06:57;98068.84;;;13.50;57.11
13553;BME280;6847;48.830;9.116;2023-12-28T17:09:24;98061.16;;;13.52;57.10
13553;BME280;6847;48.830;9.116;2023-12-28T17:11:57;98025.09;;;13.23;57.16
13553;BME280;6847;48.830;9.116;2023-12-28T17:14:29;97949.50;;;12.82;56.82
13553;BME280;6847;48.830;9.116;2023-12-28T17:16:57;98045.50;;;13.44;56.77
13553;BME280;6847;48.830;9.116;2023-12-28T17:19:24;97907.94;;;12.58;57.14
13553;BME280;6847;48.830;9.116;2023-12-28T17:21:53;98047.78;;;13.37;57.08
13553;BME280;6847;48.830;9.116;2023-12-28T17:24:25;97830.31;;;12.09;57.09
13553;BME280;6847;48.830;9.116;2023-12-28T17:26:56;98024.41;;;13.36;57.28
13553;BME280;6847;48.830;9.116;2023-12-28T17:29:30;98047.69;;;13.42;57.48
13553;BME280;6847;48.830;9.116;2023-12-28T17:32:00;98051.22;;;13.43;57.43
13553;BME280;6847;48.830;9.116;2023-12-28T17:34:33;98013.72;;;13.21;57.52
13553;BME280;6847;48.830;9.116;2023-12-28T17:37:13;98035.72;;;13.43;57.17
13553;BME280;6847;48.830;9.116;2023-12-28T17:39:43;97959.72;;;12.90;57.19
13553;BME280;6847;48.830;9.116;2023-12-28T17:42:12;97849.03;;;12.11;57.19
13553;BME280;6847;48.830;9.116;2023-12-28T17:44:41;97955.94;;;12.86;57.06
13553;BME280;6847;48.830;9.116;2023-12-28T17:47:14;98038.72;;;13.42;57.64
13553;BME280;6847;48.830;9.116;2023-12-28T17:49:43;97958.94;;;12.85;57.16
13553;BME280;6847;48.830;9.116;2023-12-28T17:52:17;98053.22;;;13.37;57.22
13553;BME280;6847;48.830;9.116;2023-12-28T17:54:45;98031.94;;;13.20;57.15
13553;BME280;6847;48.830;9.116;2023-12-28T17:57:13;97833.13;;;11.99;57.59
13553;BME280;6847;48.830;9.116;2023-12-28T17:59:39;97909.16;;;12.47;57.34
13553;BME280;6847;48.830;9.116;2023-12-28T18:02:09;98016.78;;;13.14;57.44
13553;BME280;6847;48.830;9.116;2023-12-28T18:04:40;98055.84;;;13.42;57.55
13553;BME280;6847;48.830;9.116;2023-12-28T18:07:09;97895.16;;;12.35;57.23
13553;BME280;6847;48.830;9.116;2023-12-28T18:09:54;97875.16;;;12.26;57.29
13553;BME280;6847;48.830;9.116;2023-12-28T18:12:21;97946.91;;;12.72;57.34
13553;BME280;6847;48.830;9.116;2023-12-28T18:14:48;98066.72;;;13.42;57.21
13553;BME280;6847;48.830;9.116;2023-12-28T18:17:15;98068.16;;;13.40;57.49
13553;BME280;6847;48.830;9.116;2023-12-28T18:19:42;98051.44;;;13.27;57.72
13553;BME280;6847;48.830;9.116;2023-12-28T18:22:11;97975.84;;;12.82;57.46
13553;BME280;6847;48.830;9.116;2023-12-28T18:24:38;97841.78;;;12.01;57.33
13553;BME280;6847;48.830;9.116;2023-12-28T18:27:09;98074.69;;;13.39;57.54
13553;BME280;6847;48.830;9.116;2023-12-28T18:29:36;98061.22;;;13.28;57.61
13553;BME280;6847;48.830;9.116;2023-12-28T18:32:03;98054.97;;;13.28;57.82
13553;BME280;6847;48.830;9.116;2023-12-28T18:34:31;97858.63;;;11.98;57.44
13553;BME280;6847;48.830;9.116;2023-12-28T18:36:59;97974.09;;;12.67;57.46
13553;BME280;6847;48.830;9.116;2023-12-28T18:39:27;98059.44;;;13.19;58.05
13553;BME280;6847;48.830;9.116;2023-12-28T18:41:55;98081.91;;;13.24;58.13
13553;BME280;6847;48.830;9.116;2023-12-28T18:44:25;97915.50;;;12.13;57.73
13553;BME280;6847;48.830;9.116;2023-12-28T18:46:58;97922.50;;;12.14;58.36
13553;BME280;6847;48.830;9.116;2023-12-28T18:49:24;97991.06;;;12.54;58.40
13553;BME280;6847;48.830;9.116;2023-12-28T18:51:51;98094.03;;;13.08;58.33
13553;BME280;6847;48.830;9.116;2023-12-28T18:54:18;98061.06;;;12.91;58.45
13553;BME280;6847;48.830;9.116;2023-12-28T18:56:45;98087.31;;;13.01;58.17
13553;BME280;6847;48.830;9.116;2023-12-28T18:59:12;98085.69;;;13.00;58.48
13553;BME280;6847;48.830;9.116;2023-12-28T19:01:40;98063.81;;;12.86;58.65
13553;BME280;6847;48.830;9.116;2023-12-28T19:04:07;98087.31;;;13.01;58.24
13553;BME280;6847;48.830;9.116;2023-12-28T19:06:33;97972.31;;;12.29;58.34
13553;BME280;6847;48.830;9.116;2023-12-28T19:09:00;98089.50;;;12.98;58.58
13553;BME280;6847;48.830;9.116;2023-12-28T19:11:31;97998.47;;;12.48;58.58
13553;BME280;6847;48.830;9.116;2023-12-28T19:13:57;98005.28;;;12.46;58.16
13553;BME280;6847;48.830;9.116;2023-12-28T19:16:24;98084.13;;;12.93;58.38
13553;BME280;6847;48.830;9.116;2023-12-28T19:18:52;98109.28;;;13.04;58.37
13553;BME280;6847;48.830;9.116;2023-12-28T19:21:20;98101.41;;;13.03;58.70
13553;BME280;6847;48.830;9.116;2023-12-28T19:23:48;97926.47;;;11.98;58.44
13553;BME280;6847;48.830;9.116;2023-12-28T19:26:19;98105.72;;;13.09;58.71
13553;BME280;6847;48.830;9.116;2023-12-28T19:28:48;98097.13;;;12.96;58.67
13553;BME280;6847;48.830;9.116;2023-12-28T19:31:19;97973.47;;;12.22;58.42
13553;BME280;6847;48.830;9.116;2023-12-28T19:34:04;98112.28;;;13.03;58.63
13553;BME280;6847;48.830;9.116;2023-12-28T19:36:33;97970.00;;;12.17;58.69
13553;BME280;6847;48.830;9.116;2023-12-28T19:39:00;98107.66;;;13.03;58.86
13553;BME280;6847;48.830;9.116;2023-12-28T19:41:33;98100.91;;;13.01;58.95
13553;BME280;6847;48.830;9.116;2023-12-28T19:44:00;98104.72;;;13.00;59.03
13553;BME280;6847;48.830;9.116;2023-12-28T19:46:28;98059.59;;;12.75;59.09
13553;BME280;6847;48.830;9.116;2023-12-28T19:48:54;97967.66;;;12.05;58.97
13553;BME280;6847;48.830;9.116;2023-12-28T19:51:25;98099.09;;;12.91;59.12
13553;BME280;6847;48.830;9.116;2023-12-28T19:53:52;98108.09;;;12.86;59.21
13553;BME280;6847;48.830;9.116;2023-12-28T19:56:22;98041.09;;;12.48;59.56
13553;BME280;6847;48.830;9.116;2023-12-28T19:58:50;97884.56;;;11.46;59.55
13553;BME280;6847;48.830;9.116;2023-12-28T20:01:17;98103.75;;;12.85;59.23
13553;BME280;6847;48.830;9.116;2023-12-28T20:03:44;98002.28;;;12.18;59.51
13553;BME280;6847;48.830;9.116;2023-12-28T20:06:10;98070.72;;;12.73;59.42
13553;BME280;6847;48.830;9.116;2023-12-28T20:08:39;98098.88;;;12.87;59.26
13553;BME280;6847;48.830;9.116;2023-12-28T20:11:05;97958.81;;;11.95;59.56
13553;BME280;6847;48.830;9.116;2023-12-28T20:13:32;97945.56;;;11.88;59.50
13553;BME280;6847;48.830;9.116;2023-12-28T20:15:59;98084.81;;;12.80;59.57
13553;BME280;6847;48.830;9.116;2023-12-28T20:18:26;98008.09;;;12.36;59.56
13553;BME280;6847;48.830;9.116;2023-12-28T20:20:53;98009.16;;;12.40;59.40
13553;BME280;6847;48.830;9.116;2023-12-28T20:23:19;97869.91;;;11.47;59.68
13553;BME280;6847;48.830;9.116;2023-12-28T20:25:47;98066.56;;;12.57;60.10
13553;BME280;6847;48.830;9.116;2023-12-28T20:28:15;98053.03;;;12.52;60.31
13553;BME280;6847;48.830;9.116;2023-12-28T20:30:41;98044.34;;;12.50;60.15
13553;BME280;6847;48.830;9.116;2023-12-28T20:33:08;98062.75;;;12.58;60.81
13553;BME280;6847;48.830;9.116;2023-12-28T20:35:35;98062.75;;;12.58;60.39
13553;BME280;6847;48.830;9.116;2023-12-28T20:38:01;97964.97;;;12.00;60.70
13553;BME280;6847;48.830;9.116;2023-12-28T20:40:28;97987.41;;;12.11;60.71
13553;BME280;6847;48.830;9.116;2023-12-28T20:42:56;98058.38;;;12.62;60.47
13553;BME280;6847;48.830;9.116;2023-12-28T20:45:23;98070.25;;;12.66;60.77
13553;BME280;6847;48.830;9.116;2023-12-28T20:47:50;98072.34;;;12.74;60.71
13553;BME280;6847;48.830;9.116;2023-12-28T20:50:18;97982.72;;;12.21;60.73
13553;BME280;6847;48.830;9.116;2023-12-28T20:52:45;97947.09;;;11.99;60.66
13553;BME280;6847;48.830;9.116;2023-12-28T20:55:12;97845.03;;;11.40;60.73
13553;BME280;6847;48.830;9.116;2023-12-28T20:57:39;97925.19;;;11.91;60.90
13553;BME280;6847;48.830;9.116;2023-12-28T21:00:09;97850.44;;;11.40;60.65